Главная страница
METAR-TAF:

METAR-TAF

Аэропорты :

Кувейт, Кувейт

широта: 29-13N, долгота: 047-59E, высота над уровнем моря: 55 м

Текущие метеонаблюдения

Эта сводка был подготовлена 32 минут назад, в 01:00 UTC
Ветер 8 Узел от западный
Температура 28°C
Влажность 20%
Давление 1001 hPa
Видимость: 7000 м
ясное небо

METAR: OKBK 240100Z 28008KT 7000 SKC 28/03 Q1001 NOSIG

Время: 04:32 (01:32 UTC)

Прогноз

Эта сводка был подготовлена 2 часа и 47 минут назад, в 22:45 UTC
Прогноз действительный с 24-го 00 UTC до 25-го 06 UTC
Ветер 10 Узел от западно-северо-западный с порывами до 20 Узел
Видимость: 6000 м
ясное небо
временами
С 24-го 00 UTC до 24-го 14 UTC
Видимость: 4000 м
Низовая пыльная метель

TAF: OKBK 232245Z 2400/2506 30010G20KT 6000 SKC TEMPO 2400/2414 4000 BLDU

Метеонаблюдения и прогнозы для более 4000 аэропортов (сводки METAR и TAF).

Имеющиеся станции представлены на карте желтыми и красными точками.

Чтобы увидеть название станции, наведите на нее мышь.

Затем щелкните, чтобы увидеть метеонаблюдения и метеопрогнозы.

Управление картой: чтобы увеличить масштаб, щелкните зеленые кнопки с черным крестиком; чтобы уменьшить масштаб, щелкните зеленую кнопку с тире; для просмотра соседних карт щелкайте зеленые стрелки.


METAR-TAF: